createdAt,value
2023-05-10T16:20:10.555Z,445.2857
2023-05-10T16:21:04.202Z,503.0833
2023-05-10T16:22:06.746Z,531.8461
2023-05-10T16:23:09.338Z,559.7692
2023-05-10T16:24:11.889Z,587.0769
2023-05-10T16:25:14.494Z,618.1539
2023-05-10T16:26:17.048Z,633.9231
2023-05-10T16:27:19.645Z,642.2308
2023-05-10T16:28:22.182Z,666.3846
2023-05-10T16:29:24.985Z,674.0000
2023-05-10T16:30:27.349Z,676.1539
2023-05-10T16:31:30.048Z,680.5385
2023-05-10T16:32:32.587Z,698.9231
2023-05-10T16:33:35.069Z,708.5385
2023-05-10T16:34:37.619Z,722.0000
2023-05-10T16:39:51.770Z,510.8571
2023-05-10T20:06:19.498Z,532.0714
2023-05-10T20:07:09.557Z,638.0000
2023-05-10T20:08:12.179Z,596.9231
2023-05-10T20:28:30.585Z,408.0000
2023-05-10T20:29:22.931Z,426.0909
2023-05-10T20:30:24.313Z,494.0833
2023-05-10T20:31:27.104Z,482.7692
2023-05-10T20:32:29.522Z,494.6923
2023-05-10T20:33:32.285Z,519.3077
2023-05-10T20:34:34.629Z,485.0000
2023-05-10T20:35:37.184Z,502.5385
2023-05-10T20:36:39.789Z,459.0769
2023-05-10T20:37:42.324Z,496.5385
2023-05-10T20:38:44.955Z,533.5385
2023-05-10T20:39:49.817Z,567.3846
2023-05-10T20:40:50.251Z,548.0000
2023-05-10T20:41:52.631Z,512.8461
2023-05-10T20:42:55.245Z,479.7692
2023-05-10T20:43:57.790Z,422.6923
2023-05-10T20:45:01.545Z,428.3846
2023-05-10T20:46:02.945Z,463.7692
2023-05-10T20:47:05.526Z,402.5385
2023-05-10T20:48:08.160Z,400.1538
2023-05-10T20:49:10.700Z,427.0769
2023-05-10T20:50:13.283Z,442.1538
2023-05-10T20:51:15.968Z,429.7692
2023-05-10T20:52:18.375Z,419.8462
2023-05-10T20:53:20.981Z,407.9231
2023-05-10T20:54:23.547Z,403.9231
2023-05-10T20:55:26.131Z,400.0000
2023-05-10T20:56:28.996Z,400.0000
2023-05-10T20:57:31.304Z,400.0000
2023-05-10T20:58:33.844Z,400.0000
2023-05-10T20:59:36.947Z,400.0000
2023-05-10T21:00:38.986Z,400.0000
2023-05-10T21:01:41.714Z,400.0000
2023-05-10T21:02:44.174Z,400.0000
2023-05-10T21:03:46.771Z,400.0000
2023-05-10T21:04:49.391Z,400.0000
2023-05-10T21:05:51.882Z,400.0000
2023-05-10T21:06:54.432Z,400.0000
2023-05-10T21:07:57.141Z,400.0000
2023-05-10T21:08:59.774Z,400.0000
2023-05-10T21:10:02.171Z,400.0000
2023-05-10T21:11:04.739Z,400.0000
2023-05-10T21:12:07.319Z,400.0000
2023-05-10T21:13:09.869Z,400.0000
2023-05-10T21:14:12.492Z,400.0000
2023-05-10T21:15:15.025Z,400.0000
2023-05-10T21:16:17.651Z,400.0000
2023-05-10T21:17:20.439Z,400.0000
2023-05-10T21:18:22.851Z,400.0000
2023-05-10T21:19:25.298Z,400.0000
2023-05-10T21:20:27.907Z,400.0000
2023-05-10T21:21:30.453Z,412.9231
2023-05-10T21:22:33.050Z,403.5385
2023-05-10T21:23:35.596Z,400.0000
2023-05-10T21:24:38.207Z,400.0769
2023-05-10T21:25:40.764Z,401.2308
2023-05-10T21:26:43.360Z,400.0000
2023-05-10T21:27:45.900Z,402.2308
2023-05-10T21:28:48.837Z,400.0000
2023-05-10T21:29:51.067Z,411.9231
2023-05-10T21:30:53.673Z,400.0000
2023-05-10T21:31:56.237Z,402.0000
2023-05-10T21:32:58.830Z,401.0000
2023-05-10T21:34:01.635Z,400.0000
2023-05-10T21:35:03.950Z,400.0000
2023-05-10T21:36:06.561Z,400.0000
2023-05-10T21:37:09.104Z,400.0000
2023-05-10T21:38:11.796Z,400.0000
2023-05-10T21:39:14.254Z,400.0000
2023-05-10T21:40:17.022Z,400.0000
2023-05-10T21:41:19.398Z,400.0000
2023-05-10T21:42:21.978Z,400.0000
2023-05-10T21:43:24.759Z,400.0000
2023-05-10T21:44:27.091Z,400.0000
2023-05-10T21:45:29.731Z,400.0000
2023-05-10T21:46:32.270Z,400.0000
2023-05-10T21:47:34.881Z,400.0000
2023-05-10T21:48:37.406Z,400.0000
2023-05-10T21:49:39.985Z,400.0000
2023-05-10T21:50:42.535Z,400.0000
2023-05-10T21:51:45.135Z,400.0000
2023-05-10T21:52:47.683Z,400.0000
2023-05-10T21:53:50.290Z,400.0000
2023-05-10T21:54:52.831Z,400.0000
2023-05-10T21:55:55.459Z,400.0000
2023-05-10T21:56:57.976Z,400.0000
2023-05-10T21:58:00.588Z,400.0000
2023-05-10T21:59:03.129Z,400.0000
2023-05-10T22:00:05.733Z,400.0000
2023-05-10T22:01:08.317Z,400.0000
2023-05-10T22:02:10.938Z,402.3846
2023-05-10T22:03:13.574Z,404.5385
2023-05-10T22:04:16.019Z,407.7692
2023-05-10T22:05:18.570Z,402.9231
2023-05-10T22:06:21.182Z,400.0000
2023-05-10T22:07:23.720Z,400.0000
2023-05-10T22:08:26.307Z,400.0000
2023-05-10T22:09:28.860Z,400.0000
2023-05-10T22:10:31.466Z,400.0000
2023-05-10T22:11:34.009Z,400.0000
2023-05-10T22:12:36.641Z,400.0000
2023-05-10T22:13:39.165Z,400.0000
2023-05-10T22:14:41.769Z,400.0000
2023-05-10T22:15:44.313Z,400.0000
2023-05-10T22:16:46.985Z,400.0000
2023-05-10T22:17:49.589Z,400.0000
2023-05-10T22:18:52.115Z,400.0000
2023-05-10T22:19:54.611Z,400.0000
2023-05-10T22:20:57.215Z,400.0000
2023-05-10T22:21:59.760Z,400.0000
2023-05-10T22:23:02.367Z,400.0000
2023-05-10T22:24:04.937Z,400.0000
2023-05-10T22:25:07.614Z,400.0000
2023-05-10T22:26:10.114Z,400.0000
2023-05-10T22:27:12.643Z,400.0000
2023-05-10T22:28:15.249Z,400.0000
2023-05-10T22:29:17.827Z,400.0000
2023-05-10T22:30:20.597Z,400.0000
2023-05-10T22:31:22.995Z,400.0000
2023-05-10T22:32:25.642Z,400.0000
2023-05-10T22:33:28.138Z,400.0000
2023-05-10T22:34:30.709Z,400.0000
2023-05-10T22:35:33.265Z,400.0000
2023-05-10T22:36:35.879Z,400.0000
2023-05-10T22:37:38.417Z,400.0000
2023-05-10T22:38:41.044Z,400.0000
2023-05-10T22:39:43.568Z,400.0000
2023-05-10T22:40:46.172Z,400.0000
2023-05-10T22:41:48.722Z,400.0000
2023-05-10T22:42:51.333Z,400.0000
2023-05-10T22:43:53.873Z,400.0000
2023-05-10T22:44:56.469Z,400.0000
2023-05-10T22:45:59.078Z,400.0000
2023-05-10T22:47:01.620Z,400.0000
2023-05-10T22:48:04.280Z,400.0000
2023-05-10T22:49:06.792Z,400.0000
2023-05-10T22:50:09.551Z,400.0000
2023-05-10T22:51:11.969Z,400.0000
2023-05-10T22:52:14.494Z,400.0000
2023-05-10T22:53:17.103Z,400.0000
2023-05-10T22:54:19.655Z,400.0000
2023-05-10T22:55:22.259Z,400.0000
2023-05-10T22:56:24.812Z,400.0000
2023-05-10T22:57:27.406Z,400.0000
2023-05-10T22:58:29.958Z,400.0000
2023-05-10T22:59:32.589Z,400.0000
2023-05-10T23:00:35.143Z,400.0000
2023-05-10T23:01:37.756Z,400.0000
2023-05-10T23:02:40.296Z,400.0000
2023-05-10T23:03:42.866Z,400.0000
2023-05-10T23:04:45.445Z,400.0000
2023-05-10T23:05:48.044Z,400.0000
2023-05-10T23:06:50.634Z,400.0000
2023-05-10T23:07:53.222Z,400.0000
2023-05-10T23:08:55.699Z,400.0000
2023-05-10T23:09:58.335Z,400.0000
2023-05-10T23:11:00.889Z,400.0000
2023-05-10T23:12:03.462Z,400.0000
2023-05-10T23:13:06.016Z,400.0000
2023-05-10T23:14:08.618Z,400.0000
2023-05-10T23:15:11.208Z,400.0000
2023-05-10T23:16:13.856Z,400.0000
2023-05-10T23:17:16.320Z,400.0000
2023-05-10T23:18:18.959Z,400.0000
2023-05-10T23:19:21.470Z,400.0000
2023-05-10T23:20:24.101Z,400.0000
2023-05-10T23:21:26.629Z,400.0000
2023-05-10T23:22:29.271Z,400.0000
2023-05-10T23:23:31.842Z,400.0000
2023-05-10T23:24:34.384Z,400.0000
2023-05-10T23:25:36.951Z,400.0000
2023-05-10T23:26:39.574Z,400.0000
2023-05-10T23:27:42.100Z,400.0000
2023-05-10T23:28:44.716Z,400.0000
2023-05-10T23:29:47.261Z,400.0000
2023-05-10T23:30:49.850Z,400.0000
2023-05-10T23:31:52.438Z,400.0000
2023-05-10T23:32:55.063Z,400.0000
2023-05-10T23:33:57.569Z,400.0000
2023-05-10T23:35:00.169Z,400.0000
2023-05-10T23:36:02.798Z,400.0000
2023-05-10T23:37:05.322Z,400.0000
2023-05-10T23:38:07.883Z,400.0000
2023-05-10T23:39:10.498Z,400.0000
2023-05-10T23:40:13.042Z,400.0000
2023-05-10T23:41:15.666Z,400.0000
2023-05-10T23:42:18.232Z,400.0000
2023-05-10T23:43:20.833Z,400.0000
2023-05-10T23:44:23.402Z,400.0000
2023-05-10T23:45:26.046Z,400.0000
2023-05-10T23:46:28.587Z,400.0000
2023-05-10T23:47:31.167Z,400.0000
2023-05-10T23:48:33.737Z,400.0000
2023-05-10T23:49:36.416Z,400.0000
2023-05-10T23:50:38.858Z,400.0000
2023-05-10T23:51:41.444Z,400.0000
2023-05-10T23:52:44.007Z,400.0000
2023-05-10T23:53:46.603Z,400.0000
2023-05-10T23:54:49.153Z,400.0000
2023-05-10T23:55:51.777Z,400.0000
2023-05-10T23:56:54.338Z,400.0000
2023-05-10T23:57:56.924Z,400.0000
2023-05-10T23:58:59.476Z,400.0000
